createdAt,value
2023-02-27T00:02:21.726Z,8.13
2023-02-27T00:04:51.646Z,8.29
2023-02-27T00:07:23.789Z,8.35
2023-02-27T00:09:52.866Z,8.45
2023-02-27T00:12:21.732Z,8.24
2023-02-27T00:14:49.472Z,8.45
2023-02-27T00:17:17.277Z,8.50
2023-02-27T00:19:49.911Z,8.56
2023-02-27T00:22:18.195Z,8.60
2023-02-27T00:24:48.892Z,8.62
2023-02-27T00:27:19.099Z,8.74
2023-02-27T00:29:47.000Z,8.11
2023-02-27T00:32:15.063Z,8.03
2023-02-27T00:34:42.949Z,8.25
2023-02-27T00:37:12.493Z,8.37
2023-02-27T00:39:40.567Z,8.44
2023-02-27T00:42:09.024Z,8.41
2023-02-27T00:44:37.142Z,8.55
2023-02-27T00:49:49.904Z,8.03
2023-02-27T00:52:18.232Z,7.95
2023-02-27T00:54:55.554Z,7.92
2023-02-27T00:57:24.938Z,7.90
2023-02-27T00:59:52.966Z,8.02
2023-02-27T01:02:21.105Z,8.11
2023-02-27T01:04:49.418Z,8.22
2023-02-27T01:07:17.560Z,8.24
2023-02-27T01:12:27.121Z,8.36
2023-02-27T01:14:55.376Z,8.39
2023-02-27T01:17:23.969Z,8.48
2023-02-27T01:19:54.317Z,8.43
2023-02-27T01:22:24.579Z,8.27
2023-02-27T01:24:52.589Z,8.41
2023-02-27T01:27:20.458Z,8.49
2023-02-27T01:32:30.443Z,8.54
2023-02-27T01:34:58.614Z,8.58
2023-02-27T01:37:27.079Z,8.58
2023-02-27T01:39:59.727Z,8.44
2023-02-27T01:42:29.772Z,8.48
2023-02-27T01:45:23.838Z,8.61
2023-02-27T01:47:56.065Z,8.66
2023-02-27T01:50:24.873Z,8.34
2023-02-27T01:53:00.014Z,8.23
2023-02-27T01:55:31.584Z,8.50
2023-02-27T01:58:00.384Z,8.54
2023-02-27T02:00:28.666Z,8.53
2023-02-27T02:03:16.682Z,8.58
2023-02-27T02:05:47.095Z,8.65
2023-02-27T02:08:18.732Z,8.69
2023-02-27T02:10:50.402Z,8.79
2023-02-27T02:13:19.452Z,8.78
2023-02-27T02:16:00.935Z,8.74
2023-02-27T02:18:54.381Z,8.76
2023-02-27T02:21:59.031Z,8.92
2023-02-27T02:24:57.744Z,8.75
2023-02-27T02:27:40.763Z,8.60
2023-02-27T02:30:36.057Z,8.30
2023-02-27T02:33:32.274Z,8.51
2023-02-27T02:36:04.847Z,8.63
2023-02-27T02:38:51.126Z,8.67
2023-02-27T02:41:25.653Z,8.81
2023-02-27T02:44:12.212Z,8.75
2023-02-27T02:46:51.349Z,8.70
2023-02-27T02:49:35.521Z,8.52
2023-02-27T02:52:14.905Z,8.53
2023-02-27T02:57:53.576Z,8.49
2023-02-27T03:00:29.209Z,8.49
2023-02-27T03:03:07.172Z,8.55
2023-02-27T03:05:41.255Z,8.55
2023-02-27T03:08:25.157Z,8.72
2023-02-27T03:10:58.049Z,8.73
2023-02-27T03:13:40.462Z,8.83
2023-02-27T03:16:23.233Z,8.77
2023-02-27T03:19:06.200Z,8.67
2023-02-27T03:21:42.099Z,8.76
2023-02-27T03:24:15.193Z,8.45
2023-02-27T03:26:45.838Z,8.28
2023-02-27T03:29:26.688Z,8.06
2023-02-27T03:32:01.597Z,8.14
2023-02-27T03:34:40.456Z,7.91
2023-02-27T03:37:49.038Z,8.18
2023-02-27T03:40:39.776Z,8.41
2023-02-27T03:43:52.893Z,8.46
2023-02-27T03:46:26.819Z,8.20
2023-02-27T03:48:55.540Z,7.92
2023-02-27T03:51:25.799Z,7.90
2023-02-27T03:54:35.479Z,7.82
2023-02-27T03:57:08.705Z,8.17
2023-02-27T03:59:38.242Z,8.18
2023-02-27T04:02:06.639Z,8.31
2023-02-27T04:04:36.306Z,8.48
2023-02-27T04:07:54.526Z,8.54
2023-02-27T04:10:50.134Z,8.61
2023-02-27T04:13:23.124Z,8.61
2023-02-27T04:16:03.062Z,8.64
2023-02-27T04:18:49.539Z,8.66
2023-02-27T04:21:17.371Z,8.67
2023-02-27T04:23:50.457Z,8.62
2023-02-27T04:26:30.821Z,8.55
2023-02-27T04:29:07.818Z,8.68
2023-02-27T04:31:36.016Z,8.62
2023-02-27T04:34:11.745Z,8.58
2023-02-27T04:36:54.146Z,8.53
2023-02-27T04:39:25.135Z,8.59
2023-02-27T04:42:05.567Z,8.24
2023-02-27T04:44:36.507Z,8.49
2023-02-27T04:47:07.751Z,8.52
2023-02-27T04:49:41.984Z,8.57
2023-02-27T04:52:15.923Z,8.58
2023-02-27T04:54:47.017Z,8.55
2023-02-27T04:57:21.175Z,8.50
2023-02-27T04:59:55.368Z,8.49
2023-02-27T05:02:33.036Z,8.42
2023-02-27T05:05:04.054Z,8.18
2023-02-27T05:07:47.310Z,7.27
2023-02-27T05:10:30.589Z,7.28
2023-02-27T05:13:10.860Z,7.49
2023-02-27T05:15:45.838Z,7.57
2023-02-27T05:18:18.425Z,7.68
2023-02-27T05:21:28.294Z,7.61
2023-02-27T05:24:22.319Z,7.69
2023-02-27T05:27:18.138Z,7.75
2023-02-27T05:29:50.606Z,7.77
2023-02-27T05:32:26.738Z,7.76
2023-02-27T05:35:39.260Z,7.73
2023-02-27T05:38:21.240Z,7.85
2023-02-27T05:41:01.130Z,7.89
2023-02-27T05:43:36.372Z,7.81
2023-02-27T05:46:10.746Z,7.87
2023-02-27T05:48:47.841Z,7.95
2023-02-27T05:51:17.835Z,7.98
2023-02-27T05:53:51.434Z,8.13
2023-02-27T05:56:23.802Z,8.21
2023-02-27T05:58:57.042Z,8.16
2023-02-27T06:01:24.977Z,8.21
2023-02-27T06:03:54.003Z,8.34
2023-02-27T06:06:23.334Z,8.25
2023-02-27T06:08:51.573Z,8.17
2023-02-27T06:11:19.405Z,8.17
2023-02-27T06:13:47.371Z,8.29
2023-02-27T06:16:16.308Z,8.38
2023-02-27T06:18:44.202Z,8.49
2023-02-27T06:21:14.120Z,8.67
2023-02-27T06:23:41.923Z,8.61
2023-02-27T06:26:13.878Z,8.79
2023-02-27T06:28:42.709Z,9.04
2023-02-27T06:31:10.695Z,9.09
2023-02-27T06:33:38.814Z,9.36
2023-02-27T06:36:07.031Z,9.47
2023-02-27T06:38:35.069Z,9.54
2023-02-27T06:41:11.751Z,9.74
2023-02-27T06:43:40.023Z,9.93
2023-02-27T06:46:08.078Z,9.77
2023-02-27T06:48:36.130Z,9.69
2023-02-27T06:51:04.370Z,9.75
2023-02-27T06:53:32.405Z,9.69
2023-02-27T06:56:00.437Z,9.60
2023-02-27T06:58:28.377Z,9.81
2023-02-27T07:00:58.672Z,9.87
2023-02-27T07:03:26.932Z,9.76
2023-02-27T07:05:54.730Z,9.66
2023-02-27T07:08:22.908Z,9.74
2023-02-27T07:10:50.962Z,9.80
2023-02-27T07:13:19.868Z,9.73
2023-02-27T07:15:48.086Z,10.00
2023-02-27T07:18:16.164Z,10.19
2023-02-27T07:20:44.105Z,10.17
2023-02-27T07:23:12.079Z,10.09
2023-02-27T07:25:39.915Z,10.13
2023-02-27T07:28:08.050Z,10.22
2023-02-27T07:30:36.132Z,10.25
2023-02-27T07:33:04.064Z,10.45
2023-02-27T07:35:32.141Z,10.52
2023-02-27T07:37:59.991Z,10.58
2023-02-27T07:40:28.255Z,10.45
2023-02-27T07:42:56.175Z,10.68
2023-02-27T07:45:24.409Z,11.31
2023-02-27T07:47:52.322Z,13.37
2023-02-27T07:50:20.550Z,15.54
2023-02-27T07:52:48.541Z,16.78
2023-02-27T07:55:16.623Z,17.65
2023-02-27T07:57:45.506Z,17.84
2023-02-27T08:00:13.740Z,18.14
2023-02-27T08:02:41.877Z,20.12
2023-02-27T08:05:10.300Z,21.50
2023-02-27T08:07:38.173Z,22.00
2023-02-27T08:10:07.129Z,20.91
2023-02-27T08:12:35.329Z,19.56
2023-02-27T08:15:03.469Z,19.10
2023-02-27T08:17:31.770Z,17.95
2023-02-27T08:19:59.830Z,17.42
2023-02-27T08:22:27.755Z,17.39
2023-02-27T08:24:55.836Z,17.29
2023-02-27T08:27:24.489Z,16.91
2023-02-27T08:29:52.460Z,17.35
2023-02-27T08:32:20.544Z,18.32
2023-02-27T08:34:48.670Z,19.46
2023-02-27T08:37:16.604Z,19.90
2023-02-27T08:39:44.708Z,20.18
2023-02-27T08:42:12.943Z,19.90
2023-02-27T08:44:40.911Z,19.63
2023-02-27T08:47:08.965Z,20.24
2023-02-27T08:49:37.222Z,20.34
2023-02-27T08:52:05.852Z,19.36
2023-02-27T08:54:33.792Z,18.41
2023-02-27T08:57:01.794Z,18.19
2023-02-27T08:59:30.609Z,18.15
2023-02-27T09:01:59.312Z,18.55
2023-02-27T09:04:26.985Z,19.25
2023-02-27T09:06:54.960Z,19.57
2023-02-27T09:09:26.369Z,19.82
2023-02-27T09:11:54.514Z,19.68
2023-02-27T09:14:24.329Z,19.77
2023-02-27T09:16:52.252Z,19.25
2023-02-27T09:19:20.464Z,18.32
2023-02-27T09:21:48.667Z,18.11
2023-02-27T09:24:20.457Z,18.27
2023-02-27T09:26:50.270Z,18.37
2023-02-27T09:29:19.221Z,18.36
2023-02-27T09:31:47.683Z,18.20
2023-02-27T09:34:15.845Z,17.96
2023-02-27T09:36:43.880Z,17.48
2023-02-27T09:39:14.191Z,17.25
2023-02-27T09:41:55.867Z,16.98
2023-02-27T09:44:52.905Z,16.86
2023-02-27T09:47:26.701Z,17.14
2023-02-27T09:50:06.531Z,17.20
2023-02-27T09:52:37.596Z,16.34
2023-02-27T09:55:12.529Z,16.53
2023-02-27T09:58:07.138Z,15.60
2023-02-27T10:00:51.608Z,15.64
2023-02-27T10:03:37.585Z,17.29
2023-02-27T10:06:08.652Z,17.74
2023-02-27T10:08:44.876Z,17.21
2023-02-27T10:11:17.836Z,17.84
2023-02-27T10:14:13.255Z,17.41
2023-02-27T10:16:43.207Z,18.77
2023-02-27T10:19:17.426Z,17.79
2023-02-27T10:21:50.024Z,17.10
2023-02-27T10:24:24.150Z,17.68
2023-02-27T10:26:55.999Z,17.22
2023-02-27T10:29:40.163Z,16.74
2023-02-27T10:32:18.846Z,17.03
2023-02-27T10:35:11.462Z,16.51
2023-02-27T10:37:48.626Z,15.88
2023-02-27T10:40:18.115Z,15.50
2023-02-27T10:42:46.202Z,15.29
2023-02-27T10:45:16.151Z,15.26
2023-02-27T10:47:44.723Z,15.57
2023-02-27T10:50:23.186Z,15.67
2023-02-27T10:52:53.033Z,15.46
2023-02-27T10:55:28.208Z,15.10
2023-02-27T10:58:01.176Z,15.10
2023-02-27T11:00:44.277Z,15.03
2023-02-27T11:03:32.669Z,15.06
2023-02-27T11:06:07.435Z,15.05
2023-02-27T11:08:36.584Z,15.07
2023-02-27T11:11:07.389Z,15.10
2023-02-27T11:13:39.052Z,14.97
2023-02-27T11:16:09.974Z,14.83
2023-02-27T11:18:40.475Z,14.70
2023-02-27T11:21:30.037Z,14.47
2023-02-27T11:24:00.319Z,14.43
2023-02-27T11:26:38.441Z,14.37
2023-02-27T11:29:08.644Z,14.39
2023-02-27T11:31:38.562Z,14.50
2023-02-27T11:34:08.657Z,14.20
2023-02-27T11:36:46.865Z,14.18
2023-02-27T11:39:29.793Z,14.26
2023-02-27T11:42:06.106Z,13.96
2023-02-27T11:44:50.895Z,13.65
2023-02-27T11:47:34.359Z,13.45
2023-02-27T11:50:41.584Z,13.26
2023-02-27T11:53:42.301Z,13.44
2023-02-27T11:56:19.565Z,13.64
2023-02-27T11:59:12.630Z,13.96
2023-02-27T12:01:47.090Z,14.35
2023-02-27T12:04:22.330Z,14.32
2023-02-27T12:07:04.041Z,14.36
2023-02-27T12:09:46.129Z,14.40
2023-02-27T12:12:24.778Z,14.30
2023-02-27T12:15:07.521Z,14.18
2023-02-27T12:17:41.904Z,14.27
2023-02-27T12:20:23.124Z,14.25
2023-02-27T12:22:54.644Z,14.06
2023-02-27T12:26:03.642Z,13.68
2023-02-27T12:29:05.069Z,13.46
2023-02-27T12:31:41.261Z,13.62
2023-02-27T12:34:15.957Z,13.67
2023-02-27T12:36:44.029Z,13.71
2023-02-27T12:39:24.326Z,13.73
2023-02-27T12:42:22.023Z,13.73
2023-02-27T12:45:14.588Z,13.78
2023-02-27T12:47:42.746Z,13.77
2023-02-27T12:50:13.145Z,13.50
2023-02-27T12:53:14.568Z,13.45
2023-02-27T12:55:56.563Z,13.30
2023-02-27T12:58:46.018Z,13.12
2023-02-27T13:01:32.707Z,12.81
2023-02-27T13:04:43.232Z,12.91
2023-02-27T13:07:29.104Z,13.00
2023-02-27T13:10:04.390Z,13.09
2023-02-27T13:13:21.487Z,12.99
2023-02-27T13:16:14.609Z,13.07
2023-02-27T13:18:49.185Z,12.82
2023-02-27T13:21:54.673Z,12.66
2023-02-27T13:24:31.577Z,12.44
2023-02-27T13:27:00.053Z,12.38
2023-02-27T13:29:37.373Z,12.34
2023-02-27T13:32:41.295Z,12.27
2023-02-27T13:35:41.972Z,12.17
2023-02-27T13:38:32.646Z,11.80
2023-02-27T13:41:38.493Z,12.02
2023-02-27T13:44:21.888Z,11.84
2023-02-27T13:46:50.263Z,11.88
2023-02-27T13:49:30.203Z,11.79
2023-02-27T13:52:02.392Z,11.68
2023-02-27T13:54:40.224Z,11.75
2023-02-27T13:57:19.905Z,11.79
2023-02-27T14:00:21.474Z,11.70
2023-02-27T14:03:00.555Z,11.79
2023-02-27T14:05:35.212Z,11.95
2023-02-27T14:08:12.484Z,11.90
2023-02-27T14:10:51.210Z,11.75
2023-02-27T14:13:51.347Z,11.97
2023-02-27T14:16:38.253Z,12.03
2023-02-27T14:19:18.274Z,12.13
2023-02-27T14:21:57.917Z,12.17
2023-02-27T14:25:01.222Z,12.29
2023-02-27T14:27:47.444Z,12.20
2023-02-27T14:30:29.567Z,12.30
2023-02-27T14:33:03.093Z,12.36
2023-02-27T14:35:32.330Z,12.35
2023-02-27T14:38:08.654Z,12.14
2023-02-27T14:40:48.272Z,11.95
2023-02-27T14:43:18.916Z,11.84
2023-02-27T14:45:48.460Z,11.96
2023-02-27T14:48:27.038Z,11.88
2023-02-27T14:50:58.432Z,12.08
2023-02-27T14:53:27.707Z,12.06
2023-02-27T14:55:59.531Z,11.85
2023-02-27T14:58:28.065Z,11.88
2023-02-27T15:00:56.134Z,11.85
2023-02-27T15:03:35.186Z,11.85
2023-02-27T15:06:15.871Z,11.52
2023-02-27T15:08:48.550Z,11.01
2023-02-27T15:11:20.141Z,10.62
2023-02-27T15:14:01.413Z,10.47
2023-02-27T15:16:31.989Z,10.33
2023-02-27T15:19:05.232Z,10.10
2023-02-27T15:21:39.065Z,10.08
2023-02-27T15:24:21.528Z,9.90
2023-02-27T15:27:05.013Z,9.79
2023-02-27T15:30:00.331Z,9.70
2023-02-27T15:32:38.256Z,9.56
2023-02-27T15:35:17.974Z,9.53
2023-02-27T15:37:52.550Z,9.45
2023-02-27T15:40:27.039Z,9.53
2023-02-27T15:42:56.924Z,9.41
2023-02-27T15:45:36.386Z,9.43
2023-02-27T15:48:05.501Z,9.34
2023-02-27T15:50:36.312Z,9.43
2023-02-27T15:53:17.379Z,9.34
2023-02-27T15:55:50.104Z,9.17
2023-02-27T15:58:28.054Z,9.23
2023-02-27T16:01:03.445Z,9.25
2023-02-27T16:03:50.086Z,8.97
2023-02-27T16:06:21.620Z,8.91
2023-02-27T16:09:06.984Z,9.00
2023-02-27T16:11:37.861Z,8.98
2023-02-27T16:14:08.924Z,8.75
2023-02-27T16:16:39.112Z,8.84
2023-02-27T16:19:29.725Z,8.79
2023-02-27T16:22:14.420Z,8.72
2023-02-27T16:24:43.854Z,8.77
2023-02-27T16:27:20.471Z,8.59
2023-02-27T16:29:49.106Z,8.66
2023-02-27T16:32:27.974Z,8.69
2023-02-27T16:35:15.852Z,8.68
2023-02-27T16:37:46.748Z,8.70
2023-02-27T16:40:17.843Z,8.48
2023-02-27T16:42:47.304Z,8.48
2023-02-27T16:45:19.186Z,8.53
2023-02-27T16:47:50.417Z,8.55
2023-02-27T16:50:41.464Z,8.68
2023-02-27T16:53:09.809Z,8.63
2023-02-27T16:55:40.788Z,8.76
2023-02-27T16:58:15.948Z,8.71
2023-02-27T17:00:44.292Z,8.84
2023-02-27T17:03:12.575Z,8.77
2023-02-27T17:05:41.812Z,8.66
2023-02-27T17:08:10.652Z,8.59
2023-02-27T17:10:38.946Z,8.42
2023-02-27T17:13:07.438Z,8.43
2023-02-27T17:15:35.718Z,8.27
2023-02-27T17:18:04.110Z,8.47
2023-02-27T17:20:32.532Z,8.55
2023-02-27T17:23:01.058Z,8.34
2023-02-27T17:25:30.339Z,8.54
2023-02-27T17:27:58.853Z,8.51
2023-02-27T17:30:27.406Z,8.64
2023-02-27T17:32:56.885Z,8.74
2023-02-27T17:35:27.053Z,8.79
2023-02-27T17:37:56.129Z,8.78
2023-02-27T17:40:24.635Z,8.74
2023-02-27T17:42:53.155Z,8.61
2023-02-27T17:45:21.922Z,8.51
2023-02-27T17:47:50.873Z,8.58
2023-02-27T17:50:19.234Z,8.39
2023-02-27T17:52:47.611Z,8.53
2023-02-27T17:55:17.128Z,8.57
2023-02-27T17:57:45.717Z,8.56
2023-02-27T18:00:15.574Z,8.56
2023-02-27T18:02:45.828Z,8.49
2023-02-27T18:05:15.172Z,8.56
2023-02-27T18:07:43.727Z,8.44
2023-02-27T18:10:14.614Z,8.45
2023-02-27T18:12:43.724Z,8.40
2023-02-27T18:15:12.146Z,8.26
2023-02-27T18:17:40.538Z,8.33
2023-02-27T18:20:10.463Z,8.28
2023-02-27T18:22:38.973Z,8.05
2023-02-27T18:25:07.503Z,8.08
2023-02-27T18:27:36.004Z,8.10
2023-02-27T18:30:04.898Z,8.09
2023-02-27T18:32:33.272Z,8.03
2023-02-27T18:35:02.506Z,8.06
2023-02-27T18:37:30.970Z,8.00
2023-02-27T18:39:59.464Z,7.97
2023-02-27T18:42:28.015Z,7.92
2023-02-27T18:44:56.678Z,7.89
2023-02-27T18:47:25.867Z,7.90
2023-02-27T18:49:54.438Z,7.83
2023-02-27T18:52:22.886Z,7.94
2023-02-27T18:54:51.698Z,7.92
2023-02-27T18:57:20.090Z,7.97
2023-02-27T18:59:48.674Z,8.05
2023-02-27T19:02:19.976Z,8.09
2023-02-27T19:04:49.383Z,8.12
2023-02-27T19:07:18.637Z,7.93
2023-02-27T19:09:47.335Z,7.94
2023-02-27T19:12:16.018Z,7.68
2023-02-27T19:14:44.337Z,7.48
2023-02-27T19:17:12.976Z,7.23
2023-02-27T19:19:41.570Z,7.09
2023-02-27T19:22:09.964Z,6.81
2023-02-27T19:24:38.573Z,6.67
2023-02-27T19:27:07.996Z,6.85
2023-02-27T19:29:36.756Z,7.03
2023-02-27T19:32:07.962Z,7.13
2023-02-27T19:34:36.505Z,7.15
2023-02-27T19:37:05.078Z,7.13
2023-02-27T19:39:33.326Z,7.15
2023-02-27T19:42:02.170Z,6.95
2023-02-27T19:44:30.310Z,7.00
2023-02-27T19:46:59.014Z,6.96
2023-02-27T19:49:27.669Z,7.00
2023-02-27T19:51:56.328Z,7.09
2023-02-27T19:54:25.000Z,7.24
2023-02-27T19:56:54.717Z,7.22
2023-02-27T19:59:24.882Z,7.28
2023-02-27T20:01:53.684Z,7.29
2023-02-27T20:04:22.075Z,6.91
2023-02-27T20:06:53.304Z,6.93
2023-02-27T20:09:23.595Z,7.04
2023-02-27T20:11:57.115Z,7.16
2023-02-27T20:14:25.940Z,6.93
2023-02-27T20:16:54.657Z,6.97
2023-02-27T20:19:24.618Z,7.02
2023-02-27T20:21:54.577Z,7.21
2023-02-27T20:24:24.845Z,7.21
2023-02-27T20:26:54.590Z,6.99
2023-02-27T20:29:24.975Z,7.10
2023-02-27T20:31:55.859Z,7.16
2023-02-27T20:34:26.666Z,7.20
2023-02-27T20:36:56.175Z,7.30
2023-02-27T20:39:25.296Z,7.34
2023-02-27T20:41:53.397Z,7.23
2023-02-27T20:44:21.900Z,7.20
2023-02-27T20:46:50.401Z,7.10
2023-02-27T20:49:19.060Z,7.09
2023-02-27T20:51:46.972Z,7.09
2023-02-27T20:54:20.774Z,7.15
2023-02-27T20:56:54.834Z,7.31
2023-02-27T20:59:25.781Z,7.28
2023-02-27T21:01:54.750Z,7.37
2023-02-27T21:04:43.255Z,7.38
2023-02-27T21:07:16.559Z,7.39
2023-02-27T21:09:48.340Z,7.41
2023-02-27T21:12:17.554Z,7.26
2023-02-27T21:14:45.648Z,7.25
2023-02-27T21:17:14.071Z,7.23
2023-02-27T21:19:42.405Z,7.07
2023-02-27T21:22:12.679Z,7.00
2023-02-27T21:24:45.500Z,7.09
2023-02-27T21:27:14.051Z,6.97
2023-02-27T21:29:42.541Z,6.65
2023-02-27T21:34:54.820Z,6.74
2023-02-27T21:37:32.084Z,7.01
2023-02-27T21:40:02.465Z,7.01
2023-02-27T21:45:19.846Z,6.69
2023-02-27T21:47:57.646Z,6.65
2023-02-27T21:50:29.618Z,6.88
2023-02-27T21:52:58.027Z,6.97
2023-02-27T21:55:36.083Z,7.08
2023-02-27T21:58:04.532Z,7.15
2023-02-27T22:03:14.455Z,6.88
2023-02-27T22:05:53.130Z,6.87
2023-02-27T22:08:21.168Z,7.08
2023-02-27T22:13:32.602Z,7.32
2023-02-27T22:16:05.614Z,7.40
2023-02-27T22:18:34.295Z,7.51
2023-02-27T22:21:03.066Z,7.56
2023-02-27T22:23:31.448Z,7.65
2023-02-27T22:26:07.511Z,7.72
2023-02-27T22:28:39.324Z,7.77
2023-02-27T22:31:19.750Z,7.73
2023-02-27T22:33:50.360Z,7.82
2023-02-27T22:36:24.746Z,7.84
2023-02-27T22:38:53.580Z,7.74
2023-02-27T22:41:28.165Z,7.36
2023-02-27T22:43:57.119Z,7.26
2023-02-27T22:46:39.833Z,7.30
2023-02-27T22:49:12.620Z,7.42
2023-02-27T22:51:40.814Z,7.49
2023-02-27T22:54:10.382Z,7.44
2023-02-27T22:56:40.400Z,7.00
2023-02-27T22:59:08.759Z,7.07
2023-02-27T23:01:37.965Z,7.19
2023-02-27T23:04:08.979Z,6.93
2023-02-27T23:06:43.156Z,6.64
2023-02-27T23:09:17.265Z,6.58
2023-02-27T23:11:45.225Z,6.44
2023-02-27T23:14:13.735Z,6.77
2023-02-27T23:16:45.885Z,6.57
2023-02-27T23:19:16.447Z,6.68
2023-02-27T23:21:44.404Z,6.73
2023-02-27T23:24:18.095Z,6.88
2023-02-27T23:26:50.462Z,7.09
2023-02-27T23:29:19.091Z,7.19
2023-02-27T23:31:47.346Z,7.33
2023-02-27T23:34:15.349Z,7.40
2023-02-27T23:36:44.258Z,7.48
2023-02-27T23:39:12.253Z,7.37
2023-02-27T23:41:40.433Z,7.21
2023-02-27T23:44:08.300Z,7.33
2023-02-27T23:46:36.199Z,7.35
2023-02-27T23:49:04.115Z,7.43
2023-02-27T23:51:33.622Z,7.47
2023-02-27T23:54:01.841Z,7.53
2023-02-27T23:56:31.198Z,7.45
2023-02-27T23:59:02.397Z,7.56
